Time;durP1;ratioP1;P1;durP2;ratioP2;P2;SDS_P1;SDS_P2;PMS_P1;PMS_P2;Temp;Humidity;BMP_temperature;BMP_pressure;BME280_temperature;BME280_humidity;BME280_pressure;Samples;Min_cycle;Max_cycle;Signal;HPM_P1;HPM_P2
2022/01/22 18:51:05;;;;;;;24.43;15.25;;;;;;;-4.09;100.00;100830.26;1802947;78;23493;-89
2022/01/22 18:53:37;;;;;;;33.30;19.17;;;;;;;-4.12;100.00;100829.00;1778710;79;20965;-89
2022/01/22 18:56:06;;;;;;;30.62;16.42;;;;;;;-4.36;100.00;100826.27;1787247;79;21149;-89
2022/01/22 18:58:35;;;;;;;27.15;15.32;;;;;;;-4.54;100.00;100834.52;1786319;79;21924;-90
2022/01/22 19:01:05;;;;;;;27.20;14.73;;;;;;;-4.69;100.00;100839.29;1786431;80;21033;-90
2022/01/22 19:03:32;;;;;;;27.45;15.38;;;;;;;-4.88;100.00;100842.41;1787126;80;21088;-88
2022/01/22 19:06:00;;;;;;;21.10;12.47;;;;;;;-5.08;100.00;100852.27;1764262;80;21406;-89
2022/01/22 19:08:27;;;;;;;30.82;14.18;;;;;;;-5.27;100.00;100854.08;1763553;79;21765;-89
2022/01/22 19:10:54;;;;;;;26.65;14.30;;;;;;;-5.45;100.00;100853.77;1771664;79;21578;-88
2022/01/22 19:13:22;;;;;;;23.10;13.98;;;;;;;-5.57;100.00;100856.38;1757242;80;21029;-89
2022/01/22 19:15:49;;;;;;;31.33;13.30;;;;;;;-5.71;100.00;100854.72;1736659;81;21575;-89
2022/01/22 19:18:19;;;;;;;25.37;13.70;;;;;;;-5.79;100.00;100851.36;1766987;80;21504;-88
2022/01/22 19:20:47;;;;;;;26.65;14.13;;;;;;;-5.84;100.00;100853.09;1756415;80;21160;-89
2022/01/22 19:28:47;;;;;;;21.02;12.58;;;;;;;-6.08;100.00;100861.22;1726266;81;21579;-88
2022/01/22 19:31:17;;;;;;;20.85;13.78;;;;;;;-6.11;100.00;100862.48;1756204;81;21021;-89
2022/01/22 19:33:43;;;;;;;26.35;16.73;;;;;;;-6.10;100.00;100862.91;1751621;81;21173;-90
2022/01/22 19:36:12;;;;;;;25.92;15.43;;;;;;;-6.06;100.00;100863.74;1725943;81;21057;-89
2022/01/22 19:38:40;;;;;;;30.62;14.83;;;;;;;-5.98;100.00;100861.17;1756024;81;21033;-90
2022/01/22 19:41:14;;;;;;;26.68;14.63;;;;;;;-5.90;100.00;100872.14;1756029;81;21050;-88
2022/01/22 19:43:44;;;;;;;24.00;13.08;;;;;;;-5.87;100.00;100875.91;1751922;80;21104;-90
2022/01/22 19:46:09;;;;;;;27.73;14.87;;;;;;;-5.91;100.00;100876.34;1785621;80;21810;-92
2022/01/22 19:48:36;;;;;;;26.45;13.83;;;;;;;-5.99;100.00;100880.63;1756276;80;21168;-90
2022/01/22 19:51:03;;;;;;;29.10;15.32;;;;;;;-6.07;100.00;100880.66;1782055;80;21512;-91
2022/01/22 19:53:35;;;;;;;25.48;14.50;;;;;;;-6.16;100.00;100879.41;1781747;80;21065;-91
2022/01/22 19:56:03;;;;;;;25.48;14.90;;;;;;;-6.18;100.00;100874.75;1780949;80;21128;-92
2022/01/22 19:58:31;;;;;;;25.68;13.55;;;;;;;-6.21;100.00;100881.95;1781802;80;21158;-90
2022/01/22 20:00:58;;;;;;;26.70;14.07;;;;;;;-6.21;100.00;100878.58;1781449;80;21084;-89
2022/01/22 20:03:26;;;;;;;32.40;15.88;;;;;;;-6.22;100.00;100876.89;1781467;80;21077;-90
2022/01/22 20:05:54;;;;;;;29.40;15.23;;;;;;;-6.22;100.00;100887.03;1780558;80;21037;-90
2022/01/22 20:08:21;;;;;;;26.70;14.73;;;;;;;-6.24;100.00;100888.72;1777602;80;21043;-88
2022/01/22 20:10:53;;;;;;;28.55;15.00;;;;;;;-6.28;100.00;100885.34;1726519;80;21766;-89
2022/01/22 20:13:25;;;;;;;20.95;12.05;;;;;;;-6.35;100.00;100892.09;1769103;79;21032;-88
2022/01/22 20:15:53;;;;;;;28.40;16.05;;;;;;;-6.39;100.00;100890.42;1747764;80;22027;-88
2022/01/22 20:18:26;;;;;;;25.17;14.93;;;;;;;-6.37;100.00;100886.61;1766984;80;21014;-89
2022/01/22 20:20:51;;;;;;;23.10;12.90;;;;;;;-6.39;100.00;100894.23;1756702;80;26868;-89
2022/01/22 20:23:19;;;;;;;26.12;12.53;;;;;;;-6.38;100.00;100893.38;1771366;80;21856;-89
2022/01/22 20:25:46;;;;;;;19.82;11.45;;;;;;;-6.35;100.00;100901.41;1735786;81;20978;-89
2022/01/22 20:28:14;;;;;;;23.30;14.28;;;;;;;-6.28;100.00;100886.61;1720559;82;21002;-90
2022/01/22 20:30:41;;;;;;;21.85;12.53;;;;;;;-6.18;100.00;100887.43;1720629;82;21053;-88
2022/01/22 20:33:08;;;;;;;26.02;13.28;;;;;;;-6.14;100.00;100880.26;1750815;82;21060;-92
2022/01/22 20:35:37;;;;;;;23.38;13.85;;;;;;;-6.12;100.00;100892.48;1733508;80;21157;-88
2022/01/22 20:38:04;;;;;;;27.25;14.35;;;;;;;-6.12;100.00;100892.92;1781714;80;21057;-90
2022/01/22 20:40:32;;;;;;;25.15;14.63;;;;;;;-6.18;100.00;100896.30;1750258;80;21508;-89
2022/01/22 20:43:00;;;;;;;35.03;18.82;;;;;;;-6.22;100.00;100897.17;1781726;80;21031;-91
2022/01/22 20:45:27;;;;;;;38.15;19.77;;;;;;;-6.27;100.00;100906.45;1781212;80;21050;-89
2022/01/22 20:47:57;;;;;;;31.40;18.27;;;;;;;-6.34;100.00;100911.97;1781414;80;21193;-89
2022/01/22 20:50:29;;;;;;;35.48;18.87;;;;;;;-6.45;100.00;100906.91;1768159;80;21046;-89
2022/01/22 20:52:59;;;;;;;32.33;16.87;;;;;;;-6.54;100.00;100906.91;1761700;80;20991;-89
2022/01/22 20:55:28;;;;;;;34.35;18.20;;;;;;;-6.61;100.00;100903.95;1726670;82;21534;-86
2022/01/22 20:57:56;;;;;;;27.17;14.28;;;;;;;-6.69;100.00;100907.29;1742293;82;20994;-86
2022/01/22 21:00:28;;;;;;;27.00;13.45;;;;;;;-6.82;100.00;100900.12;1742418;80;21147;-88
2022/01/22 21:02:57;;;;;;;24.80;13.35;;;;;;;-6.94;100.00;100904.33;1742275;81;20991;-88
2022/01/22 21:05:25;;;;;;;19.45;12.05;;;;;;;-7.05;100.00;100909.38;1755882;81;21504;-89
2022/01/22 21:07:53;;;;;;;24.15;13.03;;;;;;;-7.16;100.00;100908.92;1768034;80;22328;-88
2022/01/22 21:10:24;;;;;;;25.00;14.53;;;;;;;-7.26;100.00;100902.56;1768368;80;21002;-89
2022/01/22 21:12:51;;;;;;;;;;;;;;;-7.30;100.00;100910.14;1768141;80;21149;-89
2022/01/22 21:15:20;;;;;;;32.00;16.37;;;;;;;-7.38;100.00;100902.94;1768276;81;20145;-88
2022/01/22 21:17:48;;;;;;;36.40;17.25;;;;;;;-7.43;100.00;100913.88;1768159;81;21082;-89
2022/01/22 21:20:16;;;;;;;32.13;17.48;;;;;;;-7.54;100.00;100917.23;1768050;81;20963;-89
2022/01/22 21:22:44;;;;;;;27.70;14.98;;;;;;;-7.66;100.00;100920.55;1749925;80;21155;-90
2022/01/22 21:25:11;;;;;;;28.60;15.18;;;;;;;-7.76;100.00;100916.27;1750243;80;21073;-89
2022/01/22 21:27:39;;;;;;;37.50;18.07;;;;;;;-7.84;100.00;100914.12;1743330;79;21049;-88
2022/01/22 21:30:15;;;;;;;33.08;17.02;;;;;;;-7.89;100.00;100913.25;1743741;80;21046;-89
2022/01/22 21:32:41;;;;;;;30.70;15.53;;;;;;;-7.96;100.00;100924.57;1707333;82;21773;-90
2022/01/22 21:35:11;;;;;;;28.75;14.93;;;;;;;-8.06;100.00;100919.45;1742407;81;21038;-88
2022/01/22 21:40:10;;;;;;;40.15;16.10;;;;;;;-8.24;100.00;100913.03;1742495;82;21074;-88
2022/01/22 21:42:38;;;;;;;34.73;16.42;;;;;;;-8.35;100.00;100905.78;1742768;81;21462;-87
2022/01/22 21:45:07;;;;;;;32.15;15.18;;;;;;;-8.43;100.00;100908.66;1742664;82;21047;-88
2022/01/22 21:47:35;;;;;;;27.05;14.78;;;;;;;-8.51;100.00;100902.73;1741216;80;21089;-88
2022/01/22 21:50:08;;;;;;;24.72;13.18;;;;;;;-8.60;100.00;100902.25;1775538;80;21360;-88
2022/01/22 21:52:35;;;;;;;26.82;13.72;;;;;;;-8.64;100.00;100910.22;1781558;80;21026;-88
2022/01/22 21:55:04;;;;;;;31.65;15.40;;;;;;;-8.62;100.00;100912.75;1782108;80;21038;-88
2022/01/22 21:57:32;;;;;;;30.55;15.78;;;;;;;-8.63;100.00;100909.80;1780364;80;21065;-89
2022/01/22 21:59:59;;;;;;;26.68;14.13;;;;;;;-8.69;100.00;100906.79;1780645;80;21599;-89
2022/01/22 22:02:26;;;;;;;31.73;15.95;;;;;;;-8.70;100.00;100907.66;1781561;80;21781;-89
2022/01/22 22:04:54;;;;;;;32.15;16.30;;;;;;;-8.73;100.00;100904.66;1750432;80;21614;-89
2022/01/22 22:07:21;;;;;;;31.62;15.15;;;;;;;-8.72;100.00;100916.88;1767285;80;21005;-90
2022/01/22 22:09:48;;;;;;;30.52;13.48;;;;;;;-8.72;100.00;100924.45;1735680;80;21385;-90
2022/01/22 22:12:17;;;;;;;31.05;14.63;;;;;;;-8.71;100.00;100927.41;1763561;80;21093;-89
2022/01/22 22:14:44;;;;;;;24.37;12.50;;;;;;;-8.63;100.00;100924.94;1763778;80;21757;-89
2022/01/22 22:17:12;;;;;;;27.80;13.95;;;;;;;-8.54;100.00;100914.09;1762744;80;21507;-89
2022/01/22 22:19:40;;;;;;;31.70;14.93;;;;;;;-8.45;100.00;100918.77;1750708;82;21014;-89
2022/01/22 22:22:07;;;;;;;42.55;18.40;;;;;;;-8.38;100.00;100923.46;1731416;82;21524;-89
2022/01/22 22:24:34;;;;;;;59.80;21.97;;;;;;;-8.33;100.00;100916.75;1750851;81;20974;-89
2022/01/22 22:27:01;;;;;;;56.53;22.05;;;;;;;-8.28;100.00;100910.04;1750700;80;21870;-90
2022/01/22 22:29:28;;;;;;;38.42;17.00;;;;;;;-8.28;100.00;100915.52;1766548;80;21013;-89
2022/01/22 22:31:57;;;;;;;49.08;19.70;;;;;;;-8.32;100.00;100913.39;1763620;80;20987;-88
2022/01/22 22:34:25;;;;;;;53.73;20.32;;;;;;;-8.35;100.00;100915.88;1764656;80;21057;-89
2022/01/22 22:36:52;;;;;;;49.10;19.17;;;;;;;-8.43;100.00;100904.87;1776958;80;21491;-90
2022/01/22 22:39:19;;;;;;;39.55;18.12;;;;;;;-8.47;100.00;100909.09;1781541;80;21161;-90
2022/01/22 22:41:47;;;;;;;51.88;20.15;;;;;;;-8.50;100.00;100914.53;1781538;80;20999;-89
2022/01/22 22:44:14;;;;;;;44.35;19.10;;;;;;;-8.56;100.00;100914.92;1750833;80;21500;-89
2022/01/22 22:46:41;;;;;;;35.60;14.78;;;;;;;-8.59;100.00;100917.84;1781188;80;21030;-89
2022/01/22 22:49:08;;;;;;;35.10;15.83;;;;;;;-8.62;100.00;100917.80;1768703;81;21070;-90
2022/01/22 22:51:35;;;;;;;38.08;18.10;;;;;;;-8.62;100.00;100926.24;1764485;81;21106;-88
2022/01/22 22:56:51;;;;;;;30.75;15.03;;;;;;;-8.58;100.00;100917.02;1821634;78;22862;-90
2022/01/22 22:59:18;;;;;;;24.70;12.80;;;;;;;-8.67;100.00;100919.02;1783607;80;21077;-92
2022/01/22 23:01:46;;;;;;;29.27;15.13;;;;;;;-8.66;100.00;100917.36;1783937;79;22012;-91
2022/01/22 23:04:16;;;;;;;26.60;14.60;;;;;;;-8.64;100.00;100920.33;1783691;79;21321;-90
2022/01/22 23:06:47;;;;;;;24.40;13.15;;;;;;;-8.62;100.00;100926.24;1783983;79;20982;-87
2022/01/22 23:09:13;;;;;;;21.20;12.35;;;;;;;-8.57;100.00;100923.33;1783231;80;21524;-88
2022/01/22 23:11:41;;;;;;;27.32;12.40;;;;;;;-8.53;100.00;100923.37;1783752;79;21069;-89
2022/01/22 23:14:10;;;;;;;23.73;12.55;;;;;;;-8.49;100.00;100918.75;1783265;79;21148;-87
2022/01/22 23:16:53;;;;;;;25.48;13.30;;;;;;;-8.48;100.00;100915.40;1752816;80;20919;-90
2022/01/22 23:22:11;;;;;;;29.48;13.25;;;;;;;-8.60;100.00;100924.55;1729880;81;21018;-86
2022/01/22 23:27:18;;;;;;;45.50;19.90;;;;;;;-8.66;100.00;100924.94;1752647;81;21138;-87
2022/01/22 23:29:46;;;;;;;37.95;18.85;;;;;;;-8.74;100.00;100929.50;1752880;80;21678;-88
2022/01/22 23:32:20;;;;;;;32.88;16.37;;;;;;;-8.79;100.00;100929.85;1752883;80;21077;-87
2022/01/22 23:34:54;;;;;;;34.90;17.77;;;;;;;-8.81;100.00;100925.63;1749391;81;21026;-88
2022/01/22 23:55:59;;;;;;;35.88;16.30;;;;;;;-8.45;100.00;100954.12;1755082;81;21068;-89
2022/01/22 23:58:26;;;;;;;31.82;15.08;;;;;;;-8.42;100.00;100958.36;1755284;80;21034;-90
